Time;durP1;ratioP1;P1;durP2;ratioP2;P2;SDS_P1;SDS_P2;PMS_P1;PMS_P2;Temp;Humidity;BMP_temperature;BMP_pressure;BME280_temperature;BME280_humidity;BME280_pressure;Samples;Min_cycle;Max_cycle;Signal;HPM_P1;HPM_P2
2022/01/16 00:04:37;;;;;;;14.40;7.38;;;;;;;-1.34;100.00;95630.22;10322899;28;20030;-71
2022/01/16 00:09:37;;;;;;;19.08;7.72;;;;;;;-1.26;100.00;95590.59;10346031;28;20026;-70
2022/01/16 00:14:38;;;;;;;17.83;7.15;;;;;;;-1.46;100.00;95607.91;10310058;28;20300;-71
2022/01/16 00:19:38;;;;;;;16.48;6.78;;;;;;;-1.52;100.00;95633.16;10292793;28;20027;-75
2022/01/16 00:24:39;;;;;;;18.55;7.57;;;;;;;-1.67;100.00;95677.88;10309390;28;20133;-72
2022/01/16 00:29:40;;;;;;;17.60;7.75;;;;;;;-1.50;100.00;95712.88;10312018;28;20056;-75
2022/01/16 00:34:40;;;;;;;16.45;7.72;;;;;;;-1.52;100.00;95664.78;10348892;28;20038;-72
2022/01/16 00:39:41;;;;;;;16.63;8.18;;;;;;;-1.46;100.00;95665.91;10368275;28;20112;-75
2022/01/16 00:44:41;;;;;;;18.20;8.18;;;;;;;-1.34;100.00;95540.56;10348106;28;20041;-72
2022/01/16 00:49:42;;;;;;;14.15;9.18;;;;;;;-1.37;100.00;95551.47;10366767;28;20468;-71
2022/01/16 00:54:42;;;;;;;20.92;9.05;;;;;;;-1.34;100.00;95514.22;10348911;28;20034;-75
2022/01/16 00:59:43;;;;;;;28.08;10.25;;;;;;;-1.34;100.00;95506.31;10377322;28;20168;-71
2022/01/16 01:04:46;;;;;;;24.63;10.57;;;;;;;-1.50;100.00;95593.44;10389188;28;20036;-71
2022/01/16 01:09:47;;;;;;;18.50;8.45;;;;;;;-1.35;100.00;95559.19;10407986;28;20036;-72
2022/01/16 01:15:08;;;;;;;15.10;8.05;;;;;;;-1.43;100.00;95603.09;10373350;28;20033;-71
2022/01/16 01:20:10;;;;;;;20.88;9.18;;;;;;;-1.40;100.00;95571.09;10390234;28;20029;-75
2022/01/16 01:25:14;;;;;;;15.90;7.80;;;;;;;-1.44;100.00;95567.19;10407620;28;20034;-75
2022/01/16 01:30:17;;;;;;;17.17;9.13;;;;;;;-1.47;100.00;95593.09;10389721;28;20316;-70
2022/01/16 01:35:18;;;;;;;19.73;9.02;;;;;;;-1.44;100.00;95580.38;10389879;28;20111;-70
2022/01/16 01:40:22;;;;;;;12.93;7.70;;;;;;;-1.49;100.00;95593.25;10389284;28;20056;-70
2022/01/16 01:51:04;;;;;;;16.27;9.35;;;;;;;-1.47;100.00;95640.53;10406165;28;20045;-71
2022/01/16 01:56:07;;;;;;;17.88;9.40;;;;;;;-1.45;100.00;95613.00;10389050;28;20033;-71
2022/01/16 02:01:07;;;;;;;15.63;9.13;;;;;;;-1.48;100.00;95625.69;10360008;28;20025;-70
2022/01/16 02:06:19;;;;;;;16.70;8.98;;;;;;;-1.53;100.00;95626.25;10448430;23;20058;-70
2022/01/16 02:11:24;;;;;;;16.90;8.68;;;;;;;-1.63;100.00;95647.56;10348484;28;20121;-71
2022/01/16 02:32:48;;;;;;;19.98;8.80;;;;;;;-2.28;100.00;95654.78;10365060;28;20483;-71
2022/01/16 02:37:49;;;;;;;12.50;7.70;;;;;;;-2.36;100.00;95633.72;10334650;28;20099;-75
2022/01/16 02:42:51;;;;;;;15.25;8.85;;;;;;;-2.45;100.00;95624.25;10346422;28;20581;-72
2022/01/16 02:47:52;;;;;;;23.70;11.05;;;;;;;-2.37;100.00;95633.91;10346204;28;20029;-72
2022/01/16 02:52:53;;;;;;;20.02;10.38;;;;;;;-2.45;100.00;95627.69;10345689;28;20026;-73
2022/01/16 02:57:55;;;;;;;25.75;12.52;;;;;;;-2.42;100.00;95616.81;10363946;28;20029;-75
2022/01/16 03:02:55;;;;;;;22.13;11.27;;;;;;;-2.39;100.00;95620.91;10346025;28;20415;-75
2022/01/16 03:07:56;;;;;;;23.50;11.32;;;;;;;-2.48;100.00;95617.50;10346865;28;20056;-73
2022/01/16 03:12:56;;;;;;;24.92;11.52;;;;;;;-2.43;100.00;95607.28;10346215;28;20041;-71
2022/01/16 03:23:00;;;;;;;22.00;12.73;;;;;;;-2.17;100.00;95618.53;10363525;28;20483;-70
2022/01/16 03:28:00;;;;;;;30.13;11.35;;;;;;;-2.14;100.00;95608.47;10329277;28;20025;-70
2022/01/16 03:33:01;;;;;;;27.40;12.30;;;;;;;-2.11;100.00;95617.84;10345522;28;20064;-70
2022/01/16 03:38:02;;;;;;;26.95;14.82;;;;;;;-2.16;100.00;95621.00;10346901;28;20041;-70
2022/01/16 03:43:14;;;;;;;25.05;11.63;;;;;;;-2.09;100.00;95627.22;10371855;28;20117;-75
2022/01/16 03:48:16;;;;;;;23.48;11.85;;;;;;;-2.00;100.00;95633.25;10353356;28;20033;-75
2022/01/16 03:53:17;;;;;;;28.88;12.13;;;;;;;-1.95;100.00;95622.22;10370681;28;20491;-71
2022/01/16 03:58:17;;;;;;;24.48;11.50;;;;;;;-2.04;100.00;95629.31;10352976;28;20480;-72
2022/01/16 04:03:18;;;;;;;33.85;13.90;;;;;;;-2.06;100.00;95634.75;10370135;28;20026;-71
2022/01/16 04:08:18;;;;;;;21.90;10.77;;;;;;;-2.04;100.00;95642.50;10352906;28;20112;-71
2022/01/16 04:13:20;;;;;;;27.25;12.82;;;;;;;-1.99;100.00;95642.81;10353799;28;20034;-73
2022/01/16 04:18:21;;;;;;;21.60;12.50;;;;;;;-2.09;100.00;95652.75;10353087;28;20030;-70
2022/01/16 04:23:21;;;;;;;21.33;11.52;;;;;;;-2.05;100.00;95659.31;10352842;28;20423;-76
2022/01/16 04:28:24;;;;;;;24.67;12.30;;;;;;;-2.08;100.00;95655.19;10352471;28;20119;-75
2022/01/16 04:33:25;;;;;;;21.17;12.02;;;;;;;-2.07;100.00;95656.81;10370710;28;20507;-70
2022/01/16 04:38:26;;;;;;;24.60;11.68;;;;;;;-2.02;100.00;95673.94;10369292;28;20022;-70
2022/01/16 04:48:46;;;;;;;25.65;11.13;;;;;;;-1.97;100.00;95671.59;10369112;28;20484;-71
2022/01/16 04:53:47;;;;;;;22.60;11.80;;;;;;;-2.03;100.00;95654.69;10373373;28;20176;-70
2022/01/16 04:58:48;;;;;;;23.23;10.10;;;;;;;-2.10;100.00;95656.34;10351102;28;20436;-69
2022/01/16 05:03:49;;;;;;;24.40;11.23;;;;;;;-2.08;100.00;95660.47;10350681;28;20029;-70
2022/01/16 05:08:50;;;;;;;25.00;12.32;;;;;;;-2.02;100.00;95648.44;10351260;28;20104;-75
2022/01/16 05:18:51;;;;;;;21.00;11.02;;;;;;;-2.08;100.00;95643.81;10368475;28;20129;-71
2022/01/16 05:23:51;;;;;;;22.27;11.88;;;;;;;-2.06;100.00;95661.09;10350542;28;20179;-71
2022/01/16 05:28:53;;;;;;;20.90;9.75;;;;;;;-1.94;100.00;95643.13;10350985;28;20025;-72
2022/01/16 05:33:53;;;;;;;20.70;11.45;;;;;;;-2.00;100.00;95656.97;10367891;28;20415;-74
2022/01/16 05:38:54;;;;;;;24.75;11.20;;;;;;;-1.85;100.00;95657.06;10349105;28;20026;-72
2022/01/16 05:43:55;;;;;;;23.38;11.25;;;;;;;-1.56;100.00;95652.94;10349357;28;20418;-77
2022/01/16 05:48:55;;;;;;;30.38;15.13;;;;;;;-1.48;100.00;95676.63;10348871;28;20030;-72
2022/01/16 05:53:56;;;;;;;25.15;11.10;;;;;;;-1.37;100.00;95672.75;10350056;28;20113;-73
2022/01/16 05:58:57;;;;;;;26.15;13.23;;;;;;;-1.28;100.00;95678.81;10348090;28;20168;-72
2022/01/16 06:03:57;;;;;;;27.23;14.07;;;;;;;-1.14;100.00;95679.88;10335735;28;20172;-71
2022/01/16 06:08:58;;;;;;;22.35;12.00;;;;;;;-1.12;100.00;95683.94;10365042;28;20129;-72
2022/01/16 06:13:58;;;;;;;21.88;10.65;;;;;;;-1.37;100.00;95678.03;10347263;28;20080;-74
2022/01/16 06:18:59;;;;;;;22.55;10.55;;;;;;;-1.41;100.00;95687.28;10346111;28;20022;-75
2022/01/16 06:23:59;;;;;;;18.30;8.77;;;;;;;-1.59;100.00;95675.22;10346054;28;20033;-71
2022/01/16 06:29:00;;;;;;;15.27;9.32;;;;;;;-1.81;100.00;95689.16;10364660;28;20021;-73
2022/01/16 06:34:02;;;;;;;19.85;9.70;;;;;;;-1.51;100.00;95705.16;10346591;28;20022;-70
2022/01/16 06:39:08;;;;;;;22.45;10.48;;;;;;;-1.58;100.00;95705.84;10368480;28;20025;-70
2022/01/16 06:44:08;;;;;;;21.42;11.05;;;;;;;-1.59;100.00;95714.75;10346634;28;20037;-72
2022/01/16 06:49:10;;;;;;;18.90;10.25;;;;;;;-1.58;100.00;95707.66;10345844;28;20021;-71
2022/01/16 06:54:11;;;;;;;20.85;9.15;;;;;;;-1.76;100.00;95708.75;10346514;28;20113;-74
2022/01/16 06:59:11;;;;;;;21.95;9.90;;;;;;;-1.53;100.00;95725.56;10346061;28;20025;-74
2022/01/16 07:04:12;;;;;;;18.65;10.07;;;;;;;-1.11;100.00;95725.16;10329738;28;20050;-80
2022/01/16 07:09:12;;;;;;;23.60;11.80;;;;;;;-0.81;100.00;95735.84;10345882;28;20026;-72
2022/01/16 07:14:14;;;;;;;22.73;10.75;;;;;;;-0.65;100.00;95749.91;10349530;28;20088;-82
2022/01/16 07:19:14;;;;;;;34.67;14.45;;;;;;;-0.38;100.00;95743.22;10326478;28;20732;-76
2022/01/16 07:24:16;;;;;;;24.80;13.40;;;;;;;-0.22;100.00;95735.13;10310078;28;20034;-72
2022/01/16 07:29:16;;;;;;;27.63;12.45;;;;;;;0.15;100.00;95744.00;10364205;28;20030;-75
2022/01/16 07:34:17;;;;;;;32.47;15.40;;;;;;;0.25;100.00;95748.16;10346816;28;20030;-74
2022/01/16 07:39:17;;;;;;;29.85;13.27;;;;;;;0.36;100.00;95746.91;10383527;23;20465;-72
2022/01/16 07:44:17;;;;;;;22.98;10.93;;;;;;;-0.07;100.00;95752.81;10340059;28;20037;-75
2022/01/16 07:49:18;;;;;;;22.48;11.77;;;;;;;0.18;100.00;95750.72;10324182;28;20528;-75
2022/01/16 07:54:19;;;;;;;26.38;11.20;;;;;;;0.39;100.00;95757.09;10389297;28;20021;-75
2022/01/16 07:59:19;;;;;;;17.40;9.75;;;;;;;0.38;100.00;95772.16;10405022;28;20396;-75
2022/01/16 08:04:20;;;;;;;21.55;11.43;;;;;;;0.41;100.00;95766.50;10403482;28;20029;-73
2022/01/16 08:09:20;;;;;;;31.00;11.18;;;;;;;0.76;100.00;95772.00;10405964;28;20060;-74
2022/01/16 08:14:21;;;;;;;29.58;14.73;;;;;;;1.24;100.00;95752.94;10404178;28;20045;-75
2022/01/16 08:19:21;;;;;;;35.78;16.13;;;;;;;1.56;100.00;95757.94;10404934;28;20397;-76
2022/01/16 08:24:23;;;;;;;34.50;15.35;;;;;;;1.73;100.00;95761.94;10322995;28;20480;-71
2022/01/16 08:29:23;;;;;;;48.15;18.35;;;;;;;2.44;100.00;95747.69;10356330;28;20120;-72
2022/01/16 08:34:24;;;;;;;38.28;17.30;;;;;;;2.40;100.00;95751.78;10403936;28;20450;-75
2022/01/16 08:39:24;;;;;;;42.75;19.65;;;;;;;2.27;100.00;95749.03;10402675;28;20046;-74
2022/01/16 08:44:25;;;;;;;43.53;20.20;;;;;;;2.68;100.00;95730.44;10403687;28;20022;-76
2022/01/16 08:49:25;;;;;;;40.47;20.88;;;;;;;2.82;100.00;95741.94;10403326;28;20479;-77
2022/01/16 08:54:25;;;;;;;45.25;20.33;;;;;;;2.87;100.00;95734.16;10330073;28;20467;-73
2022/01/16 08:59:27;;;;;;;41.53;17.50;;;;;;;3.01;100.00;95734.22;10321141;28;20030;-72
2022/01/16 09:04:27;;;;;;;36.65;15.60;;;;;;;3.41;100.00;95723.66;10321467;28;20023;-72
2022/01/16 09:09:30;;;;;;;33.38;15.15;;;;;;;3.78;94.94;95718.72;10321542;28;20038;-71
2022/01/16 09:14:30;;;;;;;41.47;16.45;;;;;;;4.02;96.98;95716.44;10321298;28;20030;-73
2022/01/16 09:19:31;;;;;;;33.83;15.85;;;;;;;4.30;89.13;95710.88;10345372;28;20022;-76
2022/01/16 09:24:31;;;;;;;31.33;14.90;;;;;;;5.27;82.39;95694.00;10360729;28;20448;-72
2022/01/16 09:29:32;;;;;;;34.60;16.85;;;;;;;5.88;73.79;95689.81;10378244;28;20025;-78
2022/01/16 09:34:33;;;;;;;34.80;15.30;;;;;;;6.25;72.79;95687.22;10348663;28;20033;-74
2022/01/16 09:39:33;;;;;;;44.95;15.18;;;;;;;6.66;67.84;95682.25;10319940;28;20165;-72
2022/01/16 09:44:37;;;;;;;36.63;15.57;;;;;;;6.29;66.15;95680.41;10321372;28;20018;-76
2022/01/16 09:49:37;;;;;;;29.55;15.02;;;;;;;6.23;69.40;95667.13;10319868;28;20061;-76
2022/01/16 09:54:39;;;;;;;27.85;14.30;;;;;;;6.57;63.97;95665.72;10338610;28;20121;-74
2022/01/16 09:59:39;;;;;;;33.22;13.70;;;;;;;6.54;62.91;95660.78;10335709;28;20038;-77
2022/01/16 10:04:42;;;;;;;32.25;12.13;;;;;;;7.43;58.95;95648.66;10318824;28;20027;-72
2022/01/16 10:10:10;;;;;;;28.02;12.63;;;;;;;9.15;51.65;95631.34;10319512;28;20027;-70
2022/01/16 10:15:23;;;;;;;23.45;11.85;;;;;;;10.14;46.83;95629.91;10345805;28;20026;-72
2022/01/16 10:20:25;;;;;;;28.40;13.10;;;;;;;11.89;43.49;95615.56;10342846;28;20034;-76
2022/01/16 10:25:45;;;;;;;34.00;13.52;;;;;;;13.68;40.23;95611.81;10358154;28;20471;-73
2022/01/16 10:30:48;;;;;;;27.00;12.40;;;;;;;14.84;37.09;95602.06;10386710;28;20017;-71
2022/01/16 10:35:51;;;;;;;28.00;11.73;;;;;;;16.39;33.89;95590.78;10340198;28;20523;-76
2022/01/16 10:40:54;;;;;;;23.08;10.55;;;;;;;17.23;32.34;95567.75;10316750;28;20062;-74
2022/01/16 10:45:59;;;;;;;24.67;9.52;;;;;;;16.85;32.60;95567.69;10317850;28;20165;-74
2022/01/16 10:51:01;;;;;;;21.50;10.50;;;;;;;16.81;31.60;95566.66;10317043;28;20560;-75
2022/01/16 10:56:04;;;;;;;24.35;11.15;;;;;;;17.61;31.75;95558.72;10327305;28;20411;-77
2022/01/16 11:01:13;;;;;;;15.68;8.88;;;;;;;16.93;30.21;95558.13;10317614;28;20031;-76
2022/01/16 11:06:18;;;;;;;17.65;9.38;;;;;;;17.47;30.50;95546.97;10317794;28;20030;-76
2022/01/16 11:11:22;;;;;;;19.73;10.25;;;;;;;15.79;32.40;95549.66;10316526;28;20484;-73
2022/01/16 11:16:23;;;;;;;19.25;10.70;;;;;;;16.49;31.66;95543.72;10340331;28;20026;-74
2022/01/16 11:21:35;;;;;;;20.33;10.55;;;;;;;16.68;31.44;95535.63;10357439;28;20040;-71
2022/01/16 11:26:37;;;;;;;21.58;10.52;;;;;;;17.94;29.92;95523.34;10357879;28;20117;-71
2022/01/16 11:31:38;;;;;;;24.33;10.82;;;;;;;18.03;29.67;95523.47;10364805;28;20475;-71
2022/01/16 11:36:40;;;;;;;19.65;10.65;;;;;;;17.00;30.37;95517.03;10341005;28;20049;-72
2022/01/16 11:41:54;;;;;;;21.48;11.30;;;;;;;15.50;32.19;95513.34;10356879;28;20037;-72
2022/01/16 11:47:00;;;;;;;21.00;11.70;;;;;;;15.40;32.88;95504.50;10356567;28;20389;-73
2022/01/16 11:52:07;;;;;;;18.83;10.68;;;;;;;17.47;30.58;95498.91;10355425;28;20042;-71
2022/01/16 11:57:29;;;;;;;21.50;10.80;;;;;;;17.66;29.42;95498.81;10356927;28;20892;-78
2022/01/16 12:02:37;;;;;;;20.33;10.50;;;;;;;16.98;30.43;95495.59;10359048;28;20030;-75
2022/01/16 12:07:38;;;;;;;22.05;12.80;;;;;;;14.46;33.50;95498.91;10323219;28;20590;-74
2022/01/16 12:12:38;;;;;;;26.43;13.73;;;;;;;11.82;37.26;95501.03;10322933;28;20030;-71
2022/01/16 12:17:41;;;;;;;26.15;12.20;;;;;;;9.82;41.12;95511.59;10338836;28;20092;-73
2022/01/16 12:22:55;;;;;;;29.05;14.95;;;;;;;7.92;46.49;95515.44;10322683;28;20034;-73
2022/01/16 12:28:01;;;;;;;31.23;14.63;;;;;;;6.96;50.61;95510.41;10346671;28;20025;-72
2022/01/16 12:33:09;;;;;;;31.33;15.38;;;;;;;6.44;52.71;95513.66;10405429;28;20145;-73
2022/01/16 12:38:22;;;;;;;40.03;16.25;;;;;;;5.81;57.80;95511.16;10404415;28;20049;-72
2022/01/16 12:43:30;;;;;;;34.10;14.85;;;;;;;5.72;59.45;95512.50;10403455;28;20044;-72
2022/01/16 12:48:31;;;;;;;29.27;14.70;;;;;;;5.38;63.00;95503.25;10402955;28;20406;-73
2022/01/16 12:53:45;;;;;;;27.42;13.50;;;;;;;5.27;64.73;95486.97;10402514;28;20025;-72
2022/01/16 12:58:46;;;;;;;34.63;13.88;;;;;;;4.88;69.94;95486.28;10401962;28;20379;-72
2022/01/16 13:03:47;;;;;;;34.60;14.32;;;;;;;4.82;71.82;95484.50;10331741;28;20121;-76
2022/01/16 13:08:50;;;;;;;33.28;15.32;;;;;;;4.69;72.08;95489.91;10320874;28;20018;-75
2022/01/16 13:13:52;;;;;;;33.60;14.95;;;;;;;4.70;71.30;95480.91;10353028;28;20084;-76
2022/01/16 13:19:10;;;;;;;33.97;14.02;;;;;;;4.60;73.07;95497.38;10335765;28;20489;-74
2022/01/16 13:24:28;;;;;;;30.50;14.27;;;;;;;4.41;74.32;95484.00;10320559;28;20549;-75
2022/01/16 13:29:28;;;;;;;34.40;15.68;;;;;;;4.26;75.23;95489.63;10353630;28;20423;-71
2022/01/16 13:34:41;;;;;;;33.83;15.35;;;;;;;4.23;77.55;95487.41;10402789;28;20037;-75
2022/01/16 13:39:44;;;;;;;33.95;15.32;;;;;;;3.89;81.55;95492.09;10400524;28;20579;-74
2022/01/16 13:44:46;;;;;;;30.45;14.95;;;;;;;3.73;83.77;95487.25;10344254;28;20544;-70
2022/01/16 13:49:51;;;;;;;33.75;15.07;;;;;;;3.68;86.09;95489.72;10320131;28;20026;-74
2022/01/16 13:55:09;;;;;;;42.80;15.85;;;;;;;3.70;86.21;95485.03;10335411;28;20545;-70
2022/01/16 14:00:10;;;;;;;35.13;16.50;;;;;;;3.63;86.12;95479.72;10319199;28;20118;-70
2022/01/16 14:05:22;;;;;;;34.03;14.60;;;;;;;3.55;88.31;95475.44;10319244;28;20033;-71
2022/01/16 14:10:38;;;;;;;32.13;16.63;;;;;;;3.46;90.30;95475.91;10319235;28;20088;-74
2022/01/16 14:15:39;;;;;;;36.45;16.88;;;;;;;3.15;93.58;95474.75;10334254;28;20030;-69
2022/01/16 14:21:58;;;;;;;41.05;18.20;;;;;;;3.16;96.58;95465.78;10333952;28;20054;-72
2022/01/16 14:26:10;;;;;;;40.42;17.83;;;;;;;3.11;97.13;95465.59;10318900;28;20034;-71
2022/01/16 14:31:11;;;;;;;43.55;18.45;;;;;;;2.94;98.34;95460.72;10388323;28;20044;-69
2022/01/16 14:36:11;;;;;;;38.78;17.13;;;;;;;2.65;99.91;95462.81;10384126;28;20040;-71
2022/01/16 14:41:12;;;;;;;39.78;18.67;;;;;;;2.59;100.00;95454.84;10358560;28;20026;-70
2022/01/16 14:46:13;;;;;;;47.40;19.83;;;;;;;2.40;100.00;95441.38;10321293;28;20038;-70
2022/01/16 14:51:14;;;;;;;40.60;17.38;;;;;;;2.54;100.00;95447.47;10316985;28;20084;-74
2022/01/16 14:56:16;;;;;;;45.33;19.55;;;;;;;2.52;100.00;95444.22;10321367;28;20118;-74
2022/01/16 15:01:16;;;;;;;38.15;18.02;;;;;;;2.33;100.00;95435.22;10348354;28;20030;-73
2022/01/16 15:06:17;;;;;;;43.85;18.92;;;;;;;2.37;100.00;95431.16;10357814;28;20080;-77
2022/01/16 15:11:17;;;;;;;44.17;18.85;;;;;;;2.32;100.00;95434.44;10351865;28;20081;-80
2022/01/16 15:16:24;;;;;;;38.90;20.33;;;;;;;2.15;100.00;95438.50;10333433;28;20449;-78
2022/01/16 15:21:32;;;;;;;51.17;21.40;;;;;;;2.15;100.00;95434.03;10318336;28;20030;-72
2022/01/16 15:26:33;;;;;;;46.57;21.70;;;;;;;2.11;100.00;95438.09;10319937;28;20026;-74
2022/01/16 15:31:33;;;;;;;50.50;23.73;;;;;;;2.02;100.00;95440.13;10384913;28;20516;-75
2022/01/16 15:36:34;;;;;;;62.88;25.70;;;;;;;1.96;100.00;95440.91;10337164;28;20073;-73
2022/01/16 15:41:35;;;;;;;69.97;28.23;;;;;;;1.80;100.00;95439.47;10330773;28;20065;-73
2022/01/16 15:46:35;;;;;;;76.13;32.67;;;;;;;1.65;100.00;95444.13;10365752;28;20495;-80
2022/01/16 15:51:36;;;;;;;82.30;34.33;;;;;;;1.54;100.00;95437.56;10374870;28;20026;-82
2022/01/16 15:56:37;;;;;;;96.88;36.78;;;;;;;1.31;100.00;95432.59;10366524;28;20029;-69
2022/01/16 16:01:37;;;;;;;96.22;35.17;;;;;;;1.34;100.00;95434.81;10364969;28;20510;-74
2022/01/16 16:06:37;;;;;;;72.60;33.47;;;;;;;1.16;100.00;95428.25;10365591;28;20018;-74
2022/01/16 16:11:38;;;;;;;72.65;28.42;;;;;;;1.15;100.00;95421.31;10342754;28;20033;-75
2022/01/16 16:16:39;;;;;;;79.97;30.58;;;;;;;1.01;100.00;95428.38;10324595;28;20496;-78
2022/01/16 16:21:39;;;;;;;76.80;29.80;;;;;;;0.82;100.00;95437.03;10360672;28;20042;-75
2022/01/16 16:26:40;;;;;;;76.68;32.70;;;;;;;0.76;100.00;95435.16;10364202;28;20022;-77
2022/01/16 16:31:40;;;;;;;68.68;29.05;;;;;;;0.65;100.00;95433.88;10398429;28;20108;-74
2022/01/16 16:36:41;;;;;;;81.60;33.05;;;;;;;0.55;100.00;95423.63;10404017;28;20410;-78
2022/01/16 16:41:48;;;;;;;72.43;34.83;;;;;;;0.51;100.00;95420.53;10369265;28;20030;-74
2022/01/16 16:46:49;;;;;;;76.60;33.33;;;;;;;0.30;100.00;95426.69;10321888;28;20396;-74
2022/01/16 16:51:49;;;;;;;80.78;33.72;;;;;;;0.24;100.00;95426.66;10322432;28;20037;-77
2022/01/16 16:56:50;;;;;;;67.10;34.55;;;;;;;0.19;100.00;95423.78;10322581;28;20488;-74
2022/01/16 17:01:51;;;;;;;77.95;30.75;;;;;;;0.19;100.00;95423.78;10338376;28;20416;-74
2022/01/16 17:06:51;;;;;;;70.50;30.42;;;;;;;0.17;100.00;95426.63;10321920;28;20080;-73
2022/01/16 17:11:52;;;;;;;97.53;33.38;;;;;;;0.09;100.00;95422.28;10322357;28;20022;-75
2022/01/16 17:16:53;;;;;;;68.32;30.95;;;;;;;0.09;100.00;95424.91;10321376;28;20036;-75
2022/01/16 17:21:53;;;;;;;59.67;28.42;;;;;;;0.08;100.00;95419.81;10320346;28;20073;-80
2022/01/16 17:26:54;;;;;;;71.13;30.02;;;;;;;0.14;100.00;95425.16;10336563;28;20076;-75
2022/01/16 17:31:54;;;;;;;80.38;33.53;;;;;;;0.23;100.00;95414.47;10393888;28;20071;-82
2022/01/16 17:36:54;;;;;;;92.60;33.17;;;;;;;0.14;100.00;95419.88;10396843;28;20447;-80
2022/01/16 17:41:55;;;;;;;59.75;28.70;;;;;;;0.20;100.00;95414.84;10320711;28;20033;-76
2022/01/16 17:46:57;;;;;;;74.28;30.85;;;;;;;0.09;100.00;95424.09;10321829;28;20046;-75
2022/01/16 17:51:57;;;;;;;65.40;26.88;;;;;;;0.14;100.00;95427.81;10348400;28;20029;-75
2022/01/16 17:56:57;;;;;;;57.60;26.45;;;;;;;0.16;100.00;95419.69;10359968;28;20030;-77
2022/01/16 18:01:58;;;;;;;68.97;28.10;;;;;;;0.15;100.00;95431.25;10359787;28;20038;-74
2022/01/16 18:06:58;;;;;;;59.60;24.45;;;;;;;0.15;100.00;95437.38;10361525;28;20484;-76
2022/01/16 18:12:00;;;;;;;38.75;19.05;;;;;;;0.04;100.00;95437.06;10342743;28;20038;-75
2022/01/16 18:17:00;;;;;;;40.30;17.50;;;;;;;-0.31;100.00;95432.47;10357283;28;20034;-75
2022/01/16 18:22:02;;;;;;;37.20;16.58;;;;;;;-0.49;100.00;95424.97;10318834;28;20034;-78
2022/01/16 18:27:04;;;;;;;47.75;19.17;;;;;;;-0.49;100.00;95429.44;10317727;28;20443;-73
2022/01/16 18:32:05;;;;;;;34.22;15.00;;;;;;;-0.63;100.00;95423.19;10393233;28;20034;-80
2022/01/16 18:37:06;;;;;;;34.15;17.38;;;;;;;-0.63;100.00;95425.81;10393431;28;20235;-82
2022/01/16 18:42:06;;;;;;;29.67;16.35;;;;;;;-0.72;100.00;95410.09;10334108;28;20033;-75
2022/01/16 18:47:08;;;;;;;39.05;16.83;;;;;;;-0.73;100.00;95413.72;10301634;28;20431;-78
2022/01/16 18:52:08;;;;;;;31.05;14.55;;;;;;;-0.72;100.00;95411.94;10301885;28;20117;-73
2022/01/16 18:57:09;;;;;;;32.50;14.80;;;;;;;-0.82;100.00;95419.31;10316654;28;20566;-72
2022/01/16 19:02:09;;;;;;;27.33;14.23;;;;;;;-0.89;100.00;95416.63;10357924;28;20087;-73
2022/01/16 19:07:11;;;;;;;44.30;20.40;;;;;;;-0.96;100.00;95427.06;10359422;28;20025;-76
2022/01/16 19:12:11;;;;;;;44.35;20.15;;;;;;;-0.87;100.00;95425.94;10356789;28;20037;-71
2022/01/16 19:17:12;;;;;;;42.60;18.70;;;;;;;-1.04;100.00;95424.53;10357244;28;20037;-78
2022/01/16 19:22:12;;;;;;;42.83;19.15;;;;;;;-1.17;100.00;95411.16;10357966;28;20041;-77
2022/01/16 19:27:13;;;;;;;54.65;20.75;;;;;;;-1.18;100.00;95418.28;10357073;28;20620;-76
2022/01/16 19:32:13;;;;;;;49.80;22.80;;;;;;;-1.18;100.00;95409.56;10395867;28;20090;-73
2022/01/16 19:37:14;;;;;;;53.47;25.45;;;;;;;-1.25;100.00;95407.63;10367974;28;20150;-71
2022/01/16 19:42:20;;;;;;;72.30;34.35;;;;;;;-1.45;100.00;95417.06;10317682;28;20141;-73
2022/01/16 19:47:20;;;;;;;73.93;36.15;;;;;;;-1.44;100.00;95413.44;10317037;28;20030;-77
2022/01/16 19:52:21;;;;;;;77.40;36.33;;;;;;;-1.49;100.00;95408.72;10317231;28;20428;-77
2022/01/16 19:57:24;;;;;;;80.32;35.95;;;;;;;-1.41;100.00;95395.47;10315902;28;20484;-73
2022/01/16 20:02:25;;;;;;;64.00;27.77;;;;;;;-1.40;100.00;95401.53;10316334;28;20066;-72
2022/01/16 20:07:26;;;;;;;65.97;29.10;;;;;;;-1.44;100.00;95400.25;10316655;28;20096;-71
2022/01/16 20:12:26;;;;;;;69.47;32.13;;;;;;;-1.58;100.00;95408.00;10337334;28;20500;-72
2022/01/16 20:17:27;;;;;;;70.97;33.10;;;;;;;-1.46;100.00;95410.19;10356565;28;20133;-76
2022/01/16 20:22:27;;;;;;;83.82;33.03;;;;;;;-1.48;100.00;95402.47;10359964;28;20557;-77
2022/01/16 20:27:28;;;;;;;45.90;22.05;;;;;;;-1.47;100.00;95403.28;10348114;28;20037;-76
2022/01/16 20:32:28;;;;;;;34.05;20.50;;;;;;;-1.47;100.00;95405.91;10331921;28;20096;-77
2022/01/16 20:37:30;;;;;;;58.72;25.05;;;;;;;-1.41;100.00;95398.09;10339294;28;20050;-73
2022/01/16 20:42:34;;;;;;;37.67;17.77;;;;;;;-1.42;100.00;95398.28;10323285;28;20023;-77
2022/01/16 20:47:35;;;;;;;56.65;28.02;;;;;;;-1.58;100.00;95394.81;10323105;28;20034;-77
2022/01/16 20:52:36;;;;;;;67.65;28.88;;;;;;;-1.58;100.00;95394.00;10322239;28;20585;-73
2022/01/16 20:57:37;;;;;;;63.38;30.02;;;;;;;-1.71;100.00;95391.97;10338264;28;20412;-74
2022/01/16 21:02:38;;;;;;;58.55;29.05;;;;;;;-1.67;100.00;95385.34;10322264;28;20629;-78
2022/01/16 21:07:39;;;;;;;57.80;28.20;;;;;;;-1.69;100.00;95382.06;10322071;28;20574;-75
2022/01/16 21:12:40;;;;;;;57.75;29.00;;;;;;;-1.83;100.00;95381.06;10322243;28;20061;-78
2022/01/16 21:17:40;;;;;;;63.17;27.85;;;;;;;-1.91;100.00;95389.06;10321679;28;20121;-76
2022/01/16 21:22:41;;;;;;;68.22;32.05;;;;;;;-2.06;100.00;95395.09;10321492;28;20030;-72
2022/01/16 21:27:41;;;;;;;59.00;28.65;;;;;;;-2.03;100.00;95399.19;10324096;28;20029;-71
2022/01/16 21:32:42;;;;;;;59.80;32.92;;;;;;;-2.38;100.00;95395.38;10402729;28;20087;-76
2022/01/16 21:37:44;;;;;;;64.25;39.03;;;;;;;-2.44;100.00;95396.91;10401880;28;20045;-78
2022/01/16 21:42:45;;;;;;;64.53;31.05;;;;;;;-2.49;100.00;95392.13;10402494;28;20025;-72
2022/01/16 21:47:45;;;;;;;75.32;36.22;;;;;;;-2.55;100.00;95389.38;10385736;28;20446;-76
2022/01/16 21:52:48;;;;;;;71.90;31.08;;;;;;;-2.54;100.00;95385.75;10403564;28;20056;-76
2022/01/16 21:57:49;;;;;;;67.38;33.83;;;;;;;-2.59;100.00;95381.84;10401412;28;20018;-77
2022/01/16 22:02:50;;;;;;;59.78;30.50;;;;;;;-2.56;100.00;95371.97;10402180;28;20029;-75
2022/01/16 22:07:51;;;;;;;71.30;34.83;;;;;;;-2.43;100.00;95380.09;10401741;28;20020;-73
2022/01/16 22:12:52;;;;;;;90.88;33.20;;;;;;;-2.53;100.00;95371.63;10401175;28;20047;-70
2022/01/16 22:17:53;;;;;;;64.95;31.95;;;;;;;-2.62;100.00;95369.03;10401785;28;20022;-72
2022/01/16 22:22:53;;;;;;;47.10;22.75;;;;;;;-2.66;100.00;95365.13;10373450;28;20527;-71
2022/01/16 22:27:54;;;;;;;59.88;28.75;;;;;;;-2.71;100.00;95361.38;10336076;28;20018;-76
2022/01/16 22:32:54;;;;;;;69.60;30.33;;;;;;;-2.72;100.00;95354.47;10335900;28;20117;-70
2022/01/16 22:37:55;;;;;;;57.05;27.00;;;;;;;-2.86;100.00;95343.72;10321106;28;20081;-73
2022/01/16 22:42:55;;;;;;;65.35;29.52;;;;;;;-2.89;100.00;95338.78;10318317;28;20026;-75
2022/01/16 22:47:56;;;;;;;69.65;28.05;;;;;;;-2.95;100.00;95329.78;10319210;28;20023;-75
2022/01/16 22:52:57;;;;;;;54.72;29.13;;;;;;;-2.81;100.00;95319.53;10302986;28;20153;-75
2022/01/16 22:57:57;;;;;;;53.50;27.02;;;;;;;-2.70;100.00;95327.00;10318439;28;20018;-71
2022/01/16 23:02:58;;;;;;;65.85;29.70;;;;;;;-2.69;100.00;95331.28;10322038;28;20025;-75
2022/01/16 23:07:58;;;;;;;50.90;25.42;;;;;;;-2.77;100.00;95331.34;10335267;28;20041;-76
2022/01/16 23:12:59;;;;;;;55.80;30.23;;;;;;;-2.79;100.00;95325.41;10363550;28;20026;-73
2022/01/16 23:17:59;;;;;;;53.45;27.40;;;;;;;-2.94;100.00;95318.28;10364691;28;20495;-74
2022/01/16 23:23:00;;;;;;;58.05;29.38;;;;;;;-3.01;100.00;95309.47;10365310;28;20125;-76
2022/01/16 23:28:00;;;;;;;56.85;28.10;;;;;;;-3.07;100.00;95311.97;10369858;28;20018;-75